createdAt,value
2019-03-12T00:00:08.875Z,0.00
2019-03-12T00:01:09.099Z,0.00
2019-03-12T00:02:09.321Z,0.00
2019-03-12T00:03:09.542Z,0.00
2019-03-12T00:04:09.767Z,0.00
2019-03-12T00:05:09.984Z,0.00
2019-03-12T00:06:10.205Z,0.00
2019-03-12T00:07:10.426Z,0.00
2019-03-12T00:08:10.648Z,0.00
2019-03-12T00:09:10.870Z,0.00
2019-03-12T00:10:11.093Z,0.00
2019-03-12T00:11:11.321Z,0.00
2019-03-12T00:12:11.534Z,0.00
2019-03-12T00:13:11.747Z,0.00
2019-03-12T00:14:11.970Z,0.00
2019-03-12T00:15:12.190Z,0.00
2019-03-12T00:16:12.415Z,0.00
2019-03-12T00:17:12.636Z,0.00
2019-03-12T00:18:12.859Z,0.00
2019-03-12T00:19:13.080Z,0.00
2019-03-12T00:20:13.307Z,0.00
2019-03-12T00:21:13.530Z,0.00
2019-03-12T00:22:13.750Z,0.00
2019-03-12T00:23:13.976Z,0.00
2019-03-12T00:24:14.195Z,0.00
2019-03-12T00:25:14.416Z,0.00
2019-03-12T00:26:14.640Z,0.00
2019-03-12T00:27:14.860Z,0.00
2019-03-12T00:28:15.087Z,0.00
2019-03-12T00:29:15.405Z,0.00
2019-03-12T00:30:15.597Z,0.00
2019-03-12T00:31:15.798Z,0.00
2019-03-12T00:32:16.023Z,0.00
2019-03-12T00:33:16.245Z,0.00
2019-03-12T00:34:16.473Z,0.00
2019-03-12T00:35:16.694Z,0.00
2019-03-12T00:36:16.915Z,0.00
2019-03-12T00:37:17.140Z,0.00
2019-03-12T00:38:17.358Z,0.00
2019-03-12T00:39:17.590Z,0.00
2019-03-12T00:40:17.810Z,0.00
2019-03-12T00:41:20.031Z,0.00
2019-03-12T00:42:18.258Z,0.00
2019-03-12T00:43:18.482Z,0.00
2019-03-12T00:44:18.700Z,0.00
2019-03-12T00:45:18.925Z,0.00
2019-03-12T00:46:19.147Z,0.00
2019-03-12T00:47:19.369Z,0.00
2019-03-12T00:48:19.591Z,0.00
2019-03-12T00:49:19.818Z,0.00
2019-03-12T00:50:20.032Z,0.00
2019-03-12T00:51:20.254Z,0.00
2019-03-12T00:52:20.485Z,0.00
2019-03-12T00:53:20.697Z,0.00
2019-03-12T00:54:20.924Z,0.00
2019-03-12T00:55:21.143Z,0.00
2019-03-12T00:56:21.366Z,0.00
2019-03-12T00:57:21.590Z,0.00
2019-03-12T00:58:21.807Z,0.00
2019-03-12T00:59:22.031Z,0.00
2019-03-12T01:00:22.253Z,0.00
2019-03-12T01:01:22.473Z,0.00
2019-03-12T01:02:22.697Z,0.00
2019-03-12T01:03:22.921Z,0.00
2019-03-12T01:04:23.141Z,0.00
2019-03-12T01:05:23.364Z,0.00
2019-03-12T01:06:23.587Z,0.00
2019-03-12T01:07:23.809Z,0.00
2019-03-12T01:08:24.029Z,0.00
2019-03-12T01:09:24.248Z,0.00
2019-03-12T01:10:24.470Z,0.00
2019-03-12T01:11:24.692Z,0.00
2019-03-12T01:12:24.913Z,0.00
2019-03-12T01:13:25.136Z,0.00
2019-03-12T01:14:25.357Z,0.00
2019-03-12T01:15:25.579Z,0.00
2019-03-12T01:16:25.799Z,0.00
2019-03-12T01:17:26.034Z,0.00
2019-03-12T01:18:26.249Z,0.00
2019-03-12T01:19:26.469Z,0.00
2019-03-12T01:20:26.689Z,0.00
2019-03-12T01:21:26.909Z,0.00
2019-03-12T01:22:27.133Z,0.00
2019-03-12T01:23:27.358Z,0.00
2019-03-12T01:24:27.583Z,0.00
2019-03-12T01:25:27.797Z,0.00
2019-03-12T01:26:28.024Z,0.00
2019-03-12T01:27:28.269Z,0.00
2019-03-12T01:28:28.474Z,0.00
2019-03-12T01:29:28.662Z,0.00
2019-03-12T01:30:28.885Z,0.00
2019-03-12T01:31:29.107Z,0.00
2019-03-12T01:32:29.332Z,0.00
2019-03-12T01:33:29.552Z,0.00
2019-03-12T01:34:29.775Z,0.00
2019-03-12T01:35:29.998Z,0.00
2019-03-12T01:36:30.222Z,0.00
2019-03-12T01:37:30.443Z,0.00
2019-03-12T01:38:30.661Z,0.00
2019-03-12T01:39:30.887Z,0.00
2019-03-12T01:40:31.107Z,0.00
2019-03-12T01:41:31.328Z,0.00
2019-03-12T01:42:31.548Z,0.00
2019-03-12T01:43:31.775Z,0.00
2019-03-12T01:44:31.989Z,0.00
2019-03-12T01:45:32.214Z,0.00
2019-03-12T01:46:32.436Z,0.00
2019-03-12T01:47:32.652Z,0.00
2019-03-12T01:48:32.876Z,0.00
2019-03-12T01:49:33.098Z,0.00
2019-03-12T01:50:33.321Z,0.00
2019-03-12T01:51:33.542Z,0.00
2019-03-12T01:52:33.764Z,0.00
2019-03-12T01:53:33.986Z,0.00
2019-03-12T01:54:34.208Z,0.00
2019-03-12T01:55:34.431Z,0.00
2019-03-12T01:56:34.655Z,0.00
2019-03-12T01:57:34.874Z,0.00
2019-03-12T01:58:35.092Z,0.00
2019-03-12T01:59:35.310Z,0.00
2019-03-12T02:00:35.529Z,0.00
2019-03-12T02:01:35.753Z,0.00
2019-03-12T02:02:35.974Z,0.00
2019-03-12T02:03:36.196Z,0.00
2019-03-12T02:04:36.414Z,0.00
2019-03-12T02:05:36.645Z,0.00
2019-03-12T02:06:36.867Z,0.00
2019-03-12T02:07:37.090Z,0.00
2019-03-12T02:08:37.311Z,0.00
2019-03-12T02:09:37.532Z,0.00
2019-03-12T02:10:37.754Z,0.00
2019-03-12T02:11:37.979Z,0.00
2019-03-12T02:12:38.198Z,0.00
2019-03-12T02:13:38.424Z,0.00
2019-03-12T02:14:38.645Z,0.00
2019-03-12T02:15:38.869Z,0.00
2019-03-12T02:16:39.092Z,0.00
2019-03-12T02:17:39.314Z,0.00
2019-03-12T02:18:39.533Z,0.00
2019-03-12T02:19:39.755Z,0.00
2019-03-12T02:20:39.981Z,0.00
2019-03-12T02:21:40.202Z,0.00
2019-03-12T02:22:40.431Z,0.00
2019-03-12T02:23:40.652Z,0.00
2019-03-12T02:24:52.007Z,0.00
2019-03-12T02:25:41.092Z,0.00
2019-03-12T02:26:41.315Z,0.00
2019-03-12T02:27:41.537Z,0.00
2019-03-12T02:28:41.760Z,0.00
2019-03-12T02:29:41.981Z,0.00
2019-03-12T02:30:42.202Z,0.00
2019-03-12T02:31:42.425Z,0.00
2019-03-12T02:32:44.474Z,0.00
2019-03-12T02:33:42.869Z,0.00
2019-03-12T02:34:43.088Z,0.00
2019-03-12T02:35:43.323Z,0.00
2019-03-12T02:36:43.542Z,0.00
2019-03-12T02:37:43.760Z,0.00
2019-03-12T02:38:43.980Z,0.00
2019-03-12T02:39:44.207Z,0.00
2019-03-12T02:40:44.431Z,0.00
2019-03-12T02:41:44.652Z,0.00
2019-03-12T02:42:44.868Z,0.00
2019-03-12T02:43:45.091Z,0.00
2019-03-12T02:44:45.315Z,0.00
2019-03-12T02:45:45.531Z,0.00
2019-03-12T02:46:45.759Z,0.00
2019-03-12T02:47:45.988Z,0.00
2019-03-12T02:48:46.205Z,0.00
2019-03-12T02:49:46.423Z,0.00
2019-03-12T02:50:46.645Z,0.00
2019-03-12T02:51:46.866Z,0.00
2019-03-12T02:52:47.086Z,0.00
2019-03-12T02:53:47.309Z,0.00
2019-03-12T02:54:47.531Z,0.00
2019-03-12T02:55:47.751Z,0.00
2019-03-12T02:56:47.979Z,0.00
2019-03-12T02:57:48.207Z,0.00
2019-03-12T02:58:48.429Z,0.00
2019-03-12T02:59:48.654Z,0.00
2019-03-12T03:00:48.878Z,0.00
2019-03-12T03:01:49.123Z,0.00
2019-03-12T03:02:49.318Z,0.00
2019-03-12T03:03:49.556Z,0.00
2019-03-12T03:04:53.914Z,0.00
2019-03-12T03:05:49.984Z,0.00
2019-03-12T03:06:50.210Z,0.00
2019-03-12T03:07:50.434Z,0.00
2019-03-12T03:08:50.654Z,0.00
2019-03-12T03:09:50.871Z,0.00
2019-03-12T03:10:51.096Z,0.00
2019-03-12T03:11:51.506Z,0.00
2019-03-12T03:12:51.542Z,0.00
2019-03-12T03:13:51.765Z,0.00
2019-03-12T03:14:51.985Z,0.00
2019-03-12T03:15:52.206Z,0.00
2019-03-12T03:16:52.424Z,0.00
2019-03-12T03:17:52.648Z,0.00
2019-03-12T03:18:52.887Z,0.00
2019-03-12T03:19:53.095Z,0.00
2019-03-12T03:20:53.312Z,0.00
2019-03-12T03:21:53.535Z,0.00
2019-03-12T03:22:53.756Z,0.00
2019-03-12T03:23:53.976Z,0.00
2019-03-12T03:24:54.198Z,0.00
2019-03-12T03:25:54.419Z,0.00
2019-03-12T03:26:54.643Z,0.00
2019-03-12T03:27:54.865Z,0.00
2019-03-12T03:28:55.084Z,0.00
2019-03-12T03:29:55.317Z,0.00
2019-03-12T03:30:55.529Z,0.00
2019-03-12T03:31:55.750Z,0.00
2019-03-12T03:32:55.982Z,0.00
2019-03-12T03:33:56.191Z,0.00
2019-03-12T03:34:56.412Z,0.00
2019-03-12T03:35:56.633Z,0.00
2019-03-12T03:36:56.856Z,0.00
2019-03-12T03:37:57.081Z,0.00
2019-03-12T03:38:57.305Z,0.00
2019-03-12T03:39:57.520Z,0.00
2019-03-12T03:40:57.779Z,0.00
2019-03-12T03:41:57.963Z,0.00
2019-03-12T03:42:58.186Z,0.00
2019-03-12T03:43:58.406Z,0.00
2019-03-12T03:44:58.633Z,0.00
2019-03-12T03:45:58.857Z,0.00
2019-03-12T03:46:59.073Z,0.00
2019-03-12T03:47:59.290Z,0.00
2019-03-12T03:48:59.512Z,0.00
2019-03-12T03:49:59.879Z,0.00
2019-03-12T03:50:59.957Z,0.00
2019-03-12T03:52:00.187Z,0.00
2019-03-12T03:53:00.399Z,0.00
2019-03-12T03:54:00.624Z,0.00
2019-03-12T03:55:00.843Z,0.00
2019-03-12T03:56:01.062Z,0.00
2019-03-12T03:57:01.285Z,0.00
2019-03-12T03:58:01.504Z,0.00
2019-03-12T03:59:01.724Z,0.00
2019-03-12T04:00:01.986Z,0.00
2019-03-12T04:01:02.168Z,0.00
2019-03-12T04:02:03.930Z,0.00
2019-03-12T04:03:02.647Z,0.00
2019-03-12T04:04:02.859Z,0.00
2019-03-12T04:05:03.091Z,0.00
2019-03-12T04:06:03.302Z,0.00
2019-03-12T04:07:03.567Z,0.00
2019-03-12T04:08:03.745Z,0.00
2019-03-12T04:09:03.969Z,0.00
2019-03-12T04:10:04.186Z,0.00
2019-03-12T04:11:04.410Z,0.00
2019-03-12T04:12:04.633Z,0.00
2019-03-12T04:13:04.863Z,0.00
2019-03-12T04:14:05.078Z,0.00
2019-03-12T04:15:05.297Z,0.00
2019-03-12T04:16:05.517Z,0.00
2019-03-12T04:17:05.752Z,0.00
2019-03-12T04:18:05.962Z,0.00
2019-03-12T04:19:06.192Z,0.00
2019-03-12T04:20:06.409Z,0.00
2019-03-12T04:21:06.626Z,0.00
2019-03-12T04:22:06.853Z,0.00
2019-03-12T04:23:07.070Z,0.00
2019-03-12T04:24:07.319Z,0.00
2019-03-12T04:25:07.514Z,0.00
2019-03-12T04:26:07.739Z,0.00
2019-03-12T04:27:07.959Z,0.00
2019-03-12T04:28:08.181Z,0.00
2019-03-12T04:29:08.403Z,0.00
2019-03-12T04:30:08.627Z,0.00
2019-03-12T04:31:08.945Z,0.00
2019-03-12T04:32:09.071Z,0.00
2019-03-12T04:33:09.289Z,0.00
2019-03-12T04:34:09.511Z,0.00
2019-03-12T04:35:09.737Z,0.00
2019-03-12T04:36:09.955Z,0.00
2019-03-12T04:37:10.180Z,0.00
2019-03-12T04:38:10.394Z,0.00
2019-03-12T04:39:10.616Z,0.00
2019-03-12T04:40:10.863Z,0.00
2019-03-12T04:41:11.082Z,0.00
2019-03-12T04:42:11.355Z,0.00
2019-03-12T04:43:11.578Z,0.00
2019-03-12T04:44:11.797Z,0.00
2019-03-12T04:45:12.021Z,0.00
2019-03-12T04:46:12.243Z,0.00
2019-03-12T04:47:12.465Z,0.00
2019-03-12T04:48:12.688Z,0.00
2019-03-12T04:49:12.906Z,0.00
2019-03-12T04:50:13.126Z,0.00
2019-03-12T04:51:13.346Z,0.00
2019-03-12T04:52:13.570Z,0.00
2019-03-12T04:53:13.878Z,0.00
2019-03-12T04:54:14.014Z,0.00
2019-03-12T04:55:14.235Z,0.00
2019-03-12T04:56:14.457Z,0.00
2019-03-12T04:57:14.678Z,0.00
2019-03-12T04:58:14.892Z,0.00
2019-03-12T04:59:15.116Z,0.00
2019-03-12T05:00:15.423Z,0.00
2019-03-12T05:01:15.518Z,0.00
2019-03-12T05:02:15.738Z,0.00
2019-03-12T05:03:15.961Z,0.00
2019-03-12T05:04:16.175Z,0.00
2019-03-12T05:05:16.397Z,4.00
2019-03-12T05:06:19.544Z,4.00
2019-03-12T05:07:16.835Z,0.00
2019-03-12T05:08:17.053Z,0.00
2019-03-12T05:09:17.278Z,4.00
2019-03-12T05:10:17.509Z,0.00
2019-03-12T05:11:17.721Z,4.00
2019-03-12T05:12:17.943Z,0.00
2019-03-12T05:13:18.164Z,4.00
2019-03-12T05:14:18.385Z,4.00
2019-03-12T05:15:18.616Z,4.00
2019-03-12T05:16:18.831Z,4.00
2019-03-12T05:17:19.056Z,4.00
2019-03-12T05:18:19.274Z,8.00
2019-03-12T05:19:19.495Z,8.00
2019-03-12T05:20:19.717Z,8.00
2019-03-12T05:21:19.940Z,12.00
2019-03-12T05:22:20.163Z,12.00
2019-03-12T05:23:20.384Z,12.00
2019-03-12T05:24:20.606Z,16.00
2019-03-12T05:25:20.826Z,20.00
2019-03-12T05:26:21.048Z,24.00
2019-03-12T05:27:21.275Z,24.00
2019-03-12T05:28:21.497Z,28.00
2019-03-12T05:29:21.738Z,36.00
2019-03-12T05:30:21.941Z,40.00
2019-03-12T05:31:22.163Z,48.00
2019-03-12T05:32:22.383Z,56.00
2019-03-12T05:33:22.606Z,68.00
2019-03-12T05:34:23.350Z,76.00
2019-03-12T05:35:23.048Z,88.00
2019-03-12T05:36:23.266Z,104.00
2019-03-12T05:37:23.489Z,116.00
2019-03-12T05:38:23.716Z,128.00
2019-03-12T05:39:23.936Z,140.00
2019-03-12T05:40:24.168Z,160.00
2019-03-12T05:41:24.379Z,176.00
2019-03-12T05:42:24.600Z,188.00
2019-03-12T05:43:24.823Z,204.00
2019-03-12T05:44:25.051Z,220.00
2019-03-12T05:45:25.267Z,236.00
2019-03-12T05:46:25.487Z,252.00
2019-03-12T05:47:25.712Z,268.00
2019-03-12T05:48:25.934Z,288.00
2019-03-12T05:49:26.159Z,308.00
2019-03-12T05:50:26.383Z,340.00
2019-03-12T05:51:26.607Z,380.00
2019-03-12T05:52:26.830Z,428.00
2019-03-12T05:53:27.056Z,484.00
2019-03-12T05:54:27.274Z,556.00
2019-03-12T05:55:27.493Z,624.00
2019-03-12T05:56:27.713Z,720.00
2019-03-12T05:57:27.937Z,828.00
2019-03-12T05:58:28.159Z,880.00
2019-03-12T05:59:28.383Z,892.00
2019-03-12T06:00:28.603Z,900.00
2019-03-12T06:01:28.821Z,912.00
2019-03-12T06:02:29.043Z,960.00
2019-03-12T06:03:29.270Z,1020.00
2019-03-12T06:04:29.487Z,1084.00
2019-03-12T06:05:29.711Z,1160.00
2019-03-12T06:06:29.932Z,1252.00
2019-03-12T06:07:30.155Z,1372.00
2019-03-12T06:08:30.378Z,1536.00
2019-03-12T06:09:30.756Z,1696.00
2019-03-12T06:10:30.821Z,1844.00
2019-03-12T06:11:31.045Z,2020.00
2019-03-12T06:12:31.267Z,2228.00
2019-03-12T06:13:31.492Z,2696.00
2019-03-12T06:14:31.714Z,3032.00
2019-03-12T06:15:31.939Z,3152.00
2019-03-12T06:16:32.158Z,3068.00
2019-03-12T06:17:32.383Z,2812.00
2019-03-12T06:18:32.603Z,2536.00
2019-03-12T06:19:32.824Z,2304.00
2019-03-12T06:20:33.050Z,2316.00
2019-03-12T06:21:33.270Z,2388.00
2019-03-12T06:22:33.495Z,2464.00
2019-03-12T06:23:33.717Z,2544.00
2019-03-12T06:24:33.945Z,2624.00
2019-03-12T06:25:34.167Z,2708.00
2019-03-12T06:26:34.386Z,2804.00
2019-03-12T06:27:34.607Z,2896.00
2019-03-12T06:28:34.834Z,3020.00
2019-03-12T06:29:35.057Z,3192.00
2019-03-12T06:30:35.278Z,3368.00
2019-03-12T06:31:35.569Z,3564.00
2019-03-12T06:32:35.723Z,3984.00
2019-03-12T06:33:35.944Z,4244.00
2019-03-12T06:34:36.168Z,4520.00
2019-03-12T06:35:36.392Z,4444.00
2019-03-12T06:36:36.607Z,4472.00
2019-03-12T06:37:36.830Z,4524.00
2019-03-12T06:38:37.055Z,4484.00
2019-03-12T06:39:37.277Z,4604.00
2019-03-12T06:40:37.502Z,4696.00
2019-03-12T06:41:37.728Z,4608.00
2019-03-12T06:42:37.946Z,4556.00
2019-03-12T06:43:38.168Z,4280.00
2019-03-12T06:44:38.391Z,3980.00
2019-03-12T06:45:38.612Z,3900.00
2019-03-12T06:46:38.837Z,3968.00
2019-03-12T06:47:39.070Z,3856.00
2019-03-12T06:48:39.287Z,3936.00
2019-03-12T06:49:39.506Z,4072.00
2019-03-12T06:50:39.734Z,4248.00
2019-03-12T06:51:39.944Z,4604.00
2019-03-12T06:52:40.167Z,4952.00
2019-03-12T06:53:40.391Z,5072.00
2019-03-12T06:54:40.615Z,5148.00
2019-03-12T06:55:41.322Z,5224.00
2019-03-12T06:56:41.065Z,5396.00
2019-03-12T06:57:41.288Z,5564.00
2019-03-12T06:58:41.513Z,5712.00
2019-03-12T06:59:41.742Z,5812.00
2019-03-12T07:00:41.964Z,5804.00
2019-03-12T07:01:42.188Z,5936.00
2019-03-12T07:02:42.411Z,6200.00
2019-03-12T07:03:42.635Z,6364.00
2019-03-12T07:04:42.860Z,6476.00
2019-03-12T07:05:43.084Z,6408.00
2019-03-12T07:06:43.309Z,6392.00
2019-03-12T07:07:45.968Z,6536.00
2019-03-12T07:08:43.758Z,6432.00
2019-03-12T07:09:43.977Z,6464.00
2019-03-12T07:10:44.200Z,6852.00
2019-03-12T07:11:44.426Z,7004.00
2019-03-12T07:12:44.649Z,7108.00
2019-03-12T07:13:44.871Z,7116.00
2019-03-12T07:14:45.098Z,7124.00
2019-03-12T07:15:45.319Z,7208.00
2019-03-12T07:16:45.543Z,7132.00
2019-03-12T07:17:45.969Z,7204.00
2019-03-12T07:18:45.995Z,7108.00
2019-03-12T07:19:46.216Z,7224.00
2019-03-12T07:20:46.441Z,7244.00
2019-03-12T07:21:46.664Z,7288.00
2019-03-12T07:22:46.889Z,6972.00
2019-03-12T07:23:47.114Z,6464.00
2019-03-12T07:24:47.336Z,6356.00
2019-03-12T07:25:50.733Z,6264.00
2019-03-12T07:26:47.782Z,6168.00
2019-03-12T07:27:48.009Z,6088.00
2019-03-12T07:28:50.557Z,6008.00
2019-03-12T07:29:48.461Z,5900.00
2019-03-12T07:30:48.681Z,5756.00
2019-03-12T07:31:48.909Z,5652.00
2019-03-12T07:32:49.130Z,5556.00
2019-03-12T07:33:49.351Z,5452.00
2019-03-12T07:34:49.585Z,5352.00
2019-03-12T07:35:49.799Z,5276.00
2019-03-12T07:36:50.026Z,5196.00
2019-03-12T07:37:50.251Z,5100.00
2019-03-12T07:38:50.474Z,5028.00
2019-03-12T07:39:50.701Z,4980.00
2019-03-12T07:40:50.922Z,4992.00
2019-03-12T07:41:51.146Z,5004.00
2019-03-12T07:42:51.356Z,4940.00
2019-03-12T07:43:51.578Z,4936.00
2019-03-12T07:44:51.802Z,5068.00
2019-03-12T07:45:52.026Z,5016.00
2019-03-12T07:46:52.252Z,5072.00
2019-03-12T07:47:52.476Z,5252.00
2019-03-12T07:48:52.704Z,5492.00
2019-03-12T07:49:52.927Z,5604.00
2019-03-12T07:50:53.150Z,5616.00
2019-03-12T07:51:53.371Z,5456.00
2019-03-12T07:52:53.597Z,5592.00
2019-03-12T07:53:59.398Z,5808.00
2019-03-12T07:54:54.041Z,6404.00
2019-03-12T07:55:54.264Z,6464.00
2019-03-12T07:56:54.497Z,6528.00
2019-03-12T07:57:54.710Z,6696.00
2019-03-12T07:58:54.939Z,6716.00
2019-03-12T07:59:55.160Z,6748.00
2019-03-12T08:00:55.383Z,6824.00
2019-03-12T08:01:55.602Z,6880.00
2019-03-12T08:02:55.831Z,6912.00
2019-03-12T08:03:58.996Z,6956.00
2019-03-12T08:04:56.272Z,6980.00
2019-03-12T08:05:56.493Z,6964.00
2019-03-12T08:06:56.717Z,6964.00
2019-03-12T08:07:56.943Z,6960.00
2019-03-12T08:08:57.163Z,6916.00
2019-03-12T08:09:57.398Z,6824.00
2019-03-12T08:10:57.610Z,6736.00
2019-03-12T08:11:57.835Z,6792.00
2019-03-12T08:12:58.057Z,6700.00
2019-03-12T08:13:58.281Z,6644.00
2019-03-12T08:14:58.505Z,6600.00
2019-03-12T08:15:58.729Z,6580.00
2019-03-12T08:16:58.953Z,6556.00
2019-03-12T08:17:59.178Z,6560.00
2019-03-12T08:18:59.397Z,6548.00
2019-03-12T08:19:59.622Z,6616.00
2019-03-12T08:20:59.844Z,6584.00
2019-03-12T08:22:00.066Z,6624.00
2019-03-12T08:23:00.291Z,6628.00
2019-03-12T08:24:00.516Z,6608.00
2019-03-12T08:25:00.747Z,6600.00
2019-03-12T08:26:00.964Z,6564.00
2019-03-12T08:27:01.187Z,6540.00
2019-03-12T08:28:01.409Z,6584.00
2019-03-12T08:29:01.629Z,6564.00
2019-03-12T08:30:01.857Z,6616.00
2019-03-12T08:31:02.075Z,6632.00
2019-03-12T08:32:02.300Z,6656.00
2019-03-12T08:33:02.525Z,6660.00
2019-03-12T08:34:02.747Z,6716.00
2019-03-12T08:35:02.971Z,6708.00
2019-03-12T08:36:03.197Z,6724.00
2019-03-12T08:37:03.415Z,6732.00
2019-03-12T08:38:03.642Z,6712.00
2019-03-12T08:39:03.868Z,6648.00
2019-03-12T08:40:04.092Z,6552.00
2019-03-12T08:41:04.318Z,6424.00
2019-03-12T08:42:04.543Z,6396.00
2019-03-12T08:43:04.764Z,6344.00
2019-03-12T08:44:04.987Z,6236.00
2019-03-12T08:45:05.228Z,6164.00
2019-03-12T08:46:05.440Z,6148.00
2019-03-12T08:47:05.663Z,6096.00
2019-03-12T08:48:05.890Z,6096.00
2019-03-12T08:49:06.109Z,6088.00
2019-03-12T08:50:06.331Z,6112.00
2019-03-12T08:51:06.555Z,6108.00
2019-03-12T08:52:06.778Z,6128.00
2019-03-12T08:53:07.003Z,6116.00
2019-03-12T08:54:07.224Z,6116.00
2019-03-12T08:55:07.448Z,6168.00
2019-03-12T08:56:07.675Z,6084.00
2019-03-12T08:57:07.893Z,6096.00
2019-03-12T08:58:08.117Z,6168.00
2019-03-12T08:59:08.340Z,6148.00
2019-03-12T09:00:08.564Z,6180.00
2019-03-12T09:01:08.788Z,6152.00
2019-03-12T09:02:09.007Z,6152.00
2019-03-12T09:03:09.230Z,6144.00
2019-03-12T09:04:09.452Z,5936.00
2019-03-12T09:05:09.678Z,5964.00
2019-03-12T09:06:09.897Z,6100.00
2019-03-12T09:07:10.123Z,6136.00
2019-03-12T09:08:10.349Z,6172.00
2019-03-12T09:09:10.572Z,6244.00
2019-03-12T09:10:10.794Z,6304.00
2019-03-12T09:11:11.019Z,6288.00
2019-03-12T09:12:11.242Z,6368.00
2019-03-12T09:13:11.469Z,6396.00
2019-03-12T09:14:11.693Z,6432.00
2019-03-12T09:15:11.916Z,6388.00
2019-03-12T09:16:12.140Z,6388.00
2019-03-12T09:17:12.363Z,6532.00
2019-03-12T09:18:12.585Z,6720.00
2019-03-12T09:19:12.805Z,6900.00
2019-03-12T09:20:13.029Z,6976.00
2019-03-12T09:21:13.253Z,7088.00
2019-03-12T09:22:13.477Z,7140.00
2019-03-12T09:23:13.704Z,7200.00
2019-03-12T09:24:13.933Z,7292.00
2019-03-12T09:25:14.150Z,7380.00
2019-03-12T09:26:14.374Z,7468.00
2019-03-12T09:27:14.598Z,7488.00
2019-03-12T09:28:14.821Z,7568.00
2019-03-12T09:29:15.047Z,7640.00
2019-03-12T09:30:15.350Z,7708.00
2019-03-12T09:31:15.448Z,7736.00
2019-03-12T09:32:15.674Z,8024.00
2019-03-12T09:33:15.902Z,8316.00
2019-03-12T09:34:16.128Z,8496.00
2019-03-12T09:35:16.336Z,8228.00
2019-03-12T09:36:16.559Z,8204.00
2019-03-12T09:37:16.785Z,8308.00
2019-03-12T09:38:17.019Z,8580.00
2019-03-12T09:39:17.230Z,8648.00
2019-03-12T09:40:17.456Z,8748.00
2019-03-12T09:41:17.666Z,8748.00
2019-03-12T09:42:17.892Z,8964.00
2019-03-12T09:43:18.113Z,8752.00
2019-03-12T09:44:18.331Z,8752.00
2019-03-12T09:45:18.556Z,9112.00
2019-03-12T09:46:18.829Z,9200.00
2019-03-12T09:47:19.006Z,8824.00
2019-03-12T09:48:19.230Z,8628.00
2019-03-12T09:49:19.454Z,8704.00
2019-03-12T09:50:19.680Z,9040.00
2019-03-12T09:51:19.903Z,9112.00
2019-03-12T09:52:20.125Z,9272.00
2019-03-12T09:53:20.350Z,9740.00
2019-03-12T09:54:20.576Z,8792.00
2019-03-12T09:55:20.797Z,9684.00
2019-03-12T09:56:21.021Z,9712.00
2019-03-12T09:57:21.244Z,9392.00
2019-03-12T09:58:21.468Z,9548.00
2019-03-12T09:59:21.693Z,9940.00
2019-03-12T10:00:21.930Z,10144.00
2019-03-12T10:01:22.133Z,10204.00
2019-03-12T10:02:22.445Z,10116.00
2019-03-12T10:03:22.582Z,10364.00
2019-03-12T10:04:22.862Z,10580.00
2019-03-12T10:05:23.031Z,10408.00
2019-03-12T10:06:23.256Z,10244.00
2019-03-12T10:07:23.481Z,10328.00
2019-03-12T10:08:23.708Z,10508.00
2019-03-12T10:09:23.938Z,9648.00
2019-03-12T10:10:24.158Z,9480.00
2019-03-12T10:11:24.388Z,9056.00
2019-03-12T10:12:24.610Z,10212.00
2019-03-12T10:13:24.836Z,8956.00
2019-03-12T10:14:25.060Z,8780.00
2019-03-12T10:15:25.287Z,9552.00
2019-03-12T10:16:25.512Z,8748.00
2019-03-12T10:17:25.743Z,8776.00
2019-03-12T10:18:25.963Z,9432.00
2019-03-12T10:19:26.190Z,8956.00
2019-03-12T10:20:26.423Z,8940.00
2019-03-12T10:21:26.640Z,8572.00
2019-03-12T10:22:26.866Z,8148.00
2019-03-12T10:23:27.092Z,7484.00
2019-03-12T10:24:28.716Z,7748.00
2019-03-12T10:25:27.543Z,7872.00
2019-03-12T10:26:27.768Z,8000.00
2019-03-12T10:27:27.992Z,8060.00
2019-03-12T10:28:28.221Z,7892.00
2019-03-12T10:29:28.445Z,8384.00
2019-03-12T10:30:28.671Z,8820.00
2019-03-12T10:31:28.896Z,8388.00
2019-03-12T10:32:29.125Z,7392.00
2019-03-12T10:33:29.346Z,7688.00
2019-03-12T10:34:30.266Z,8772.00
2019-03-12T10:35:29.807Z,8448.00
2019-03-12T10:36:31.153Z,8540.00
2019-03-12T10:37:30.243Z,8244.00
2019-03-12T10:38:30.467Z,8012.00
2019-03-12T10:39:30.693Z,7768.00
2019-03-12T10:40:30.919Z,7832.00
2019-03-12T10:41:31.150Z,8076.00
2019-03-12T10:42:31.371Z,8508.00
2019-03-12T10:43:31.595Z,8780.00
2019-03-12T10:44:31.818Z,8496.00
2019-03-12T10:45:32.060Z,8260.00
2019-03-12T10:46:32.267Z,7940.00
2019-03-12T10:47:32.490Z,7436.00
2019-03-12T10:48:32.714Z,7108.00
2019-03-12T10:49:37.344Z,7176.00
2019-03-12T10:50:33.166Z,7140.00
2019-03-12T10:51:33.391Z,6924.00
2019-03-12T10:52:33.616Z,7040.00
2019-03-12T10:53:33.839Z,7308.00
2019-03-12T10:54:34.067Z,7584.00
2019-03-12T10:55:34.313Z,7660.00
2019-03-12T10:56:34.518Z,7608.00
2019-03-12T10:57:34.752Z,7880.00
2019-03-12T10:58:34.970Z,8168.00
2019-03-12T10:59:35.191Z,8208.00
2019-03-12T11:00:35.417Z,8176.00
2019-03-12T11:01:35.648Z,8152.00
2019-03-12T11:02:35.868Z,8088.00
2019-03-12T11:03:36.095Z,8052.00
2019-03-12T11:04:36.322Z,8100.00
2019-03-12T11:05:46.004Z,8232.00
2019-03-12T11:06:36.771Z,8428.00
2019-03-12T11:07:37.001Z,8624.00
2019-03-12T11:08:37.230Z,8772.00
2019-03-12T11:09:37.446Z,8808.00
2019-03-12T11:10:37.671Z,8812.00
2019-03-12T11:11:37.898Z,8812.00
2019-03-12T11:12:38.121Z,8792.00
2019-03-12T11:13:38.349Z,8768.00
2019-03-12T11:14:38.586Z,8712.00
2019-03-12T11:15:38.799Z,8696.00
2019-03-12T11:16:39.024Z,8684.00
2019-03-12T11:17:48.883Z,8780.00
2019-03-12T11:18:39.471Z,8876.00
2019-03-12T11:19:39.693Z,9264.00
2019-03-12T11:20:39.928Z,9576.00
2019-03-12T11:21:40.152Z,9576.00
2019-03-12T11:22:40.382Z,9520.00
2019-03-12T11:23:40.604Z,9580.00
2019-03-12T11:24:40.828Z,9704.00
2019-03-12T11:25:41.052Z,9824.00
2019-03-12T11:26:41.278Z,9872.00
2019-03-12T11:27:41.506Z,9852.00
2019-03-12T11:28:41.730Z,9856.00
2019-03-12T11:29:41.953Z,9876.00
2019-03-12T11:30:42.195Z,9896.00
2019-03-12T11:31:42.402Z,9952.00
2019-03-12T11:32:42.659Z,10200.00
2019-03-12T11:33:42.849Z,10208.00
2019-03-12T11:34:43.077Z,10092.00
2019-03-12T11:35:43.303Z,9924.00
2019-03-12T11:36:43.519Z,9928.00
2019-03-12T11:37:43.739Z,9816.00
2019-03-12T11:38:43.969Z,9800.00
2019-03-12T11:39:44.193Z,9816.00
2019-03-12T11:40:44.422Z,9752.00
2019-03-12T11:41:44.662Z,9740.00
2019-03-12T11:42:44.872Z,9892.00
2019-03-12T11:43:45.123Z,10072.00
2019-03-12T11:44:45.330Z,10340.00
2019-03-12T11:45:45.544Z,10404.00
2019-03-12T11:46:46.290Z,9932.00
2019-03-12T11:47:46.014Z,9724.00
2019-03-12T11:48:46.258Z,9708.00
2019-03-12T11:49:46.449Z,9644.00
2019-03-12T11:50:46.829Z,9500.00
2019-03-12T11:51:46.920Z,9380.00
2019-03-12T11:52:54.116Z,9308.00
2019-03-12T11:53:47.741Z,9300.00
2019-03-12T11:54:47.645Z,9356.00
2019-03-12T11:55:47.914Z,9424.00
2019-03-12T11:56:48.033Z,9480.00
2019-03-12T11:57:48.504Z,9560.00
2019-03-12T11:58:48.483Z,9668.00
2019-03-12T11:59:48.713Z,9748.00
2019-03-12T12:00:48.986Z,9776.00
2019-03-12T12:01:49.171Z,9788.00
2019-03-12T12:02:59.346Z,9788.00
2019-03-12T12:03:49.624Z,9804.00
2019-03-12T12:04:49.849Z,9788.00
2019-03-12T12:05:50.076Z,9756.00
2019-03-12T12:06:50.321Z,9672.00
2019-03-12T12:07:50.526Z,9560.00
2019-03-12T12:08:50.796Z,9440.00
2019-03-12T12:09:51.037Z,9356.00
2019-03-12T12:10:51.209Z,9328.00
2019-03-12T12:11:51.430Z,9304.00
2019-03-12T12:12:51.657Z,9260.00
2019-03-12T12:13:51.877Z,9184.00
2019-03-12T12:14:52.106Z,9088.00
2019-03-12T12:15:52.329Z,8952.00
2019-03-12T12:16:52.550Z,8836.00
2019-03-12T12:17:52.779Z,8760.00
2019-03-12T12:18:53.087Z,8712.00
2019-03-12T12:19:53.229Z,8668.00
2019-03-12T12:20:53.453Z,8624.00
2019-03-12T12:21:53.705Z,8556.00
2019-03-12T12:22:53.918Z,8452.00
2019-03-12T12:23:54.146Z,8340.00
2019-03-12T12:24:54.370Z,8240.00
2019-03-12T12:25:54.592Z,8184.00
2019-03-12T12:26:54.820Z,8176.00
2019-03-12T12:27:55.043Z,8204.00
2019-03-12T12:28:55.269Z,8240.00
2019-03-12T12:29:55.494Z,8260.00
2019-03-12T12:30:55.722Z,8308.00
2019-03-12T12:31:55.954Z,8392.00
2019-03-12T12:32:56.176Z,8492.00
2019-03-12T12:33:56.409Z,8560.00
2019-03-12T12:34:56.633Z,8620.00
2019-03-12T12:35:56.859Z,8664.00
2019-03-12T12:36:57.086Z,8692.00
2019-03-12T12:37:57.311Z,8724.00
2019-03-12T12:38:57.535Z,8736.00